METAR

METAR RPLL (MNL) – NINOY AQUINO INTERNATIONAL AIRPORT (MANILA INTERNATIONAL AIRPORT)
RPLL 160900Z 13008KT 080V170 9999 FEW023 BKN100 28/21 Q1008 NOSIG RMK A2977
RPLL 160800Z 11007KT 070V180 9999 FEW023 BKN100 29/21 Q1007 NOSIG RMK A2974
RPLL 160700Z 11008KT 070V160 9999 SCT023 BKN100 29/22 Q1007 NOSIG RMK A2974
RPLL 160600Z VRB06KT 9999 SCT023 BKN100 29/22 Q1007 NOSIG RMK A2974
RPLL 160500Z 10004KT 050V210 9999 SCT023 BKN100 30/22 Q1008 NOSIG RMK A2977
RPLL 160400Z VRB04KT 9999 SCT023 BKN100 30/22 Q1009 NOSIG RMK A2980
RPLL 160300Z VRB03KT 9999 SCT023 BKN100 28/22 Q1010 NOSIG RMK A2983
RPLL 160200Z 32005KT 260V060 9999 BKN025 28/22 Q1010 NOSIG RMK A2983
RPLL 160100Z 08004KT 030V130 9999 FEW025 29/22 Q1011 NSOIG RMK A2985
RPLL 160000Z 07003KT 030V090 9999 FEW025 27/22 Q1010 NSOIG RMK A2983
RPLL 152300Z VRB02KT 9999 FEW025 SCT100 25/22 Q1010 NOSIG RMK A2983
RPLL 152200Z VRB02KT 9999 SCT025 25/22 Q1009 NOSIG RMK A2980
RPLL 152100Z VRB02KT 9999 FEW025 SCT100 25/22 Q1008 NOSIG RMK A2977
RPLL 152000Z VRB02KT 9999 FEW025 SCT100 25/22 Q1008 NOSIG RMK A2977
RPLL 151900Z VRB02KT 9999 FEW025 SCT100 25/22 Q1008 NOSIG RMK A2977
RPLL 151700Z 10003KT 070V140 9999 FEW025 26/22 Q1008 NOSIG RMK A2977
RPLL 151600Z 11004KT 070V190 9999 FEW025 26/22 Q1009 NOSIG RMK A2980
RPLL 151500Z 12005KT 080V170 9999 FEW023 26/22 Q1009 NOSIG RMK A2980
RPLL 151400Z 12006KT 070V150 9999 FEW023 SCT100 26/22 Q1009 NOSIG RMK A2980
RPLL 151200Z VRB06KT 9999 SCT023 BKN100 27/22 Q1009 NOSIG RMK A2980
RPLL 151100Z 13005KT 070V160 9999 FEW023 BKN100 27/22 Q1008 NOSIG RMK A2977
RPLL 151000Z 12006KT 080V180 9999 FEW023 BKN100 28/22 Q1008 NOSIG RMK A2977
RPLL 150900Z 12006KT 090V160 9999 SCT023 BKN100 29/23 Q1007 NOSIG RMK A2974
RPLL 150800Z 14006KT 090V200 9999 SCT023 BKN100 29/23 Q1007 NOSIG RMK A2974
RPLL 150700Z 13004KT 080V220 9999 SCT023 BKN100 30/23 Q1007 NOSIG RMK A2974
RPLL 150600Z 26008KT 210V300 9999 SCT023 BKN100 30/23 Q1007 NOSIG RMK A2974
RPLL 150500Z VRB02KT 9999 SCT023 BKN100 30/23 Q1008 NOSIG RMK A2977
RPLL 150400Z VRB03KT 9999 SCT023 BKN100 30/22 Q1009 NOSIG RMK A2980
RPLL 150300Z VRB02KT 9999 SCT023 BKN100 29/22 Q1010 NOSIG RMK A2983
RPLL 150200Z 006003KT 230V140 9999 VCSH BKN025 BKN100 28/22 Q1010 NOSIG RMK A2983 VCSH E
RPLL 150100Z 05005KT 360V090 9999 FEW025 BKN100 28/22 Q1011 NOSIG RMK A2985
RPLL 150000Z 00000KT 9999 FEW023 BKN090 27/22 Q1011 NOSIG RMK A2985
RPLL 142300Z VRB01KT 9999 SCT025 BKN100 26/23 Q1010 NOSIG RMK A2983
RPLL 142200Z 02003KT 340V050 9999 FEW023 BKN100 26/22 Q1010 NOSIG RMK A2983
RPLL 142100Z 00000KT 9999 FEW023 SCT080 25/23 Q1009 NOSIG RMK A2980
RPLL 142000Z VRB02KT 9999 SCT023 BKN100 25/23 Q1009 NOSIG RMK A2980
RPLL 141900Z VRB02KT 9999 FEW023 BKN100 25/23 Q1009 NOISG A2980
RPLL 141800Z VRB01KT 9999 FEW023 BKN100 26/23 Q1009 NOSIG RMK A2980

RPVM (CEB) – MACTAN-CEBU INTERNATIONAL AIRPORT
RPVM 160900Z 04007KT 9999 FEW018CB BKN300 28/25 Q1006 RMK A2971 CB NW N
RPVM 160800Z 04005KT 9999 FEW018CB BKN300 29/24 Q1005 RMK A2968 CB SW-NW
RPVM 160700Z 04006KT 9999 FEW018CB BKN300 29/25 Q1005 RMK A2968 CB NE SW-NW
RPVM 160600Z 05007KT 9999 FEW018CB BKN300 29/25 Q1005 RMK A2968 CB NW
RPVM 160500Z 05006KT 9999 FEW018CB BKN100 29/25 Q1006 RESHRA RMK A2971 CB SW
RPVM 160400Z 33010KT 8000 -SHRA SCT018CB OVC100 29/25 Q1007 RMK A2974 CB W
RPVM 160300Z 04010KT 9999 SCT020 BKN100 28/24 Q1008 RMK A2977
RPVM 160200Z 04008KT 9999 SCT020 SCT100 BKN250 29/24 Q1008 RMK A2977
RPVM 160000Z 01006KT 9999 FEW020 BKN300 28/23 Q1008 RMK A2977
RPVM 152300Z 02005KT 9999 FEW020 26/23 Q1008 RMK A2977
RPVM 152200Z 36005KT 9999 FEW020 25/22 Q1007 RMK A2974
RPVM 152100Z 34007KT 9999 FEW020 25/22 Q1007 RMK A2974
RPVM 152000Z 01005KT 9999 FEW020 25/22 Q1007 RMK A2974
RPVM 151900Z 01008KT 9999 FEW020 25/22 Q1006 RMK A2971
RPVM 151700Z 01010KT 9999 FEW020 26/23 Q1007 RMK A2974
RPVM 151600Z 02008KT 9999 FEW020 25/23 Q1008 RMK A2977
RPVM 151500Z 01005KT 9999 FEW020 26/23 Q1008 RMK A2977
RPVM 151400Z 01003KT 9999 FEW020 26/22 Q1009 RMK A2980
RPVM 151200Z 36004KT 9999 FEW020 SCT300 26/21 Q1008 RMK A2977
RPVM 151100Z 36005KT 9999 FEW020 SCT100 27/19 Q1008 RMK A2977
RPVM 151000Z 02010KT 9999 FEW020 BKN300 28/21 Q1007 RMK A2974
RPVM 150900Z 03012KT 9999 FEW020 BKN300 29/19 Q1006 RMK A2971
RPVM 150800Z 03011KT 9999 FEW020 SCT300 30/19 Q1006 RMK A2971
RPVM 150700Z 04014KT 9999 FEW020 SCT300 30/21 Q1006 RMK A2971
RPVM 150600Z 05011KT 9999 FEW020 SCT300 30/20 Q1006 RMK A2971
RPVM 150500Z 05010KT 9999 FEW018CB 30/21 Q1007 RMK A2974 CB SSW
RPVM 150400Z 05010KT 9999 FEW020 SCT300 30/24 Q1008 RMK A2977
RPVM 150300Z 04010KT 9999 FEW020 SCT300 Q1009 RMK A2980
RPVM 150200Z 03011KT 9999 FEW020 SCT300 30/22 Q1009 RMK A2980
RPVM 150100Z 07004KT 9999 FEW018 SCT080 28/23 Q1009 RMK A2980
RPVM 150000Z 03006KT 9999 FEW020 SCT300 28/24 Q1010 RMK A2983
RPVM 142300Z 01002KT 9999 FEW020 25/23 Q1009 RMK A2980
RPVM 142200Z 36004KT 9999 FEW020 25/23 Q1008 RMK A2977
RPVM 142100Z 02005KT 9999 FEW020 25/23 Q1008 RMK A2977
RPVM 142000Z 01005KT 9999 FEW020 24/23 Q1008 RMK A2977
RPVM 141900Z 01002KT 9999 FEW020 25/23 Q1008 RMK A2977
RPVM 141800Z 33002KT 9999 FEW020 25/24 Q1008 RMK A2977

RPLC (CRK) – CLARK INTERNATIONAL AIRPORT
RPLC 160900Z 11004KT 9999 SCT020 BKN300 29/20 Q1009 NOSIG RMK A2980
RPLC 160800Z 08008KT 9999 SCT020 BKN100 29/20 Q1008 NOSIG RMK A2977
RPLC 160700Z 07006KT 9999 SCT020 BKN100 30/20 Q1008 NOSIG RMK A2977
RPLC 160600Z 16002KT 9999 SCT020 BKN100 30/20 Q1008 NOSIG RMK A2977
RPLC 160500Z 07006KT 9999 SCT020 BKN100 30/21 Q1009 NOSIG RMK A2980
RPLC 160400Z 02006KT 9999 SCT020 BKN300 29/21 Q1010 NOSIG RMK A2983
RPLC 160300Z 36008KT 9999 FEW020 BKN300 29/21 Q1011 NOSIG RMK A2985
RPLC 160200Z 34006KT 9999 FEW020 BKN300 28/21 Q1011 NOSIG RMK A2985
RPLC 160100Z 36008KT 9999 FEW020 BKN300 27/20 Q1012 NOSIG RMK A2988
RPLC 160000Z 36004KT 9999 SCT020 BKN300 25/21 Q1012 NOSIG RMK A2988
RPLC 152300Z 34004KT 9999 FEW020 BKN300 24/20 Q1011 NOSIG RMK A2985
RPLC 152200Z 32004KT 8000 SCT020 BKN300 24/20 Q1010 NOSIG RMK A2983
RPLC 152100Z 36004KT 8000 SCT020 BKN300 24/221 Q1010 NOSIG RMK A2983
RPLC 151700Z 35004KT 8000 SCT020 BKN100 25/21 Q1010 NOSIG RMK A2983
RPLC 151600Z 34003KT 8000 SCT020 BKN100 25/22 Q1010 NOSIG RMK A2983
RPLC 151500Z 02003KT 8000 SCT020 BKN100 25/21 Q1010 NOSIG RMK A2983
RPLC 151400Z 28002KT 8000 FEW020 BKN300 26/21 Q1010 NOSIG RMK A2983
RPLC 151200Z 02004KT 8000 SCT020 BKN100 27/20 Q1010 NOSIG RMK A2983
RPLC 151100Z 09004KT 9999 SCT020 BKN100 27/21 Q1009 NOSIG RMK A2980
RPLC 151000Z 07004KT 9999 SCT020 BKN100 28/21 Q1008 NOSIG RMK A2977
RPLC 150900Z 08006KT 9999 SCT020 BKN100 29/22 Q1008 NOSIG RMK A2977
RPLC 150800Z 09010KT 9999 SCT020 BKN100 30/22 Q1008 NOSIG RMK A2977
RPLC 150700Z 04012KT 9999 SCT020 BKN300 31/21 Q1008 NOSIG RMK A2977
RPLC 150600Z 03010KT 9999 SCT020 BKN300 30/20 Q1008 NOSIG RMK A2977
RPLC 150500Z 02004KT 9999 FEW020 SCT100 30/20 Q1009 NOSIG RMK A2980
RPLC 150400Z 02008KT 9999 FEW020 BKN300 30/20 Q1011 NOSIG RMK A2985
RPLC 150300Z 04004KT 9999 SCT020 BKN100 29/19 Q1012 NOSIG RMK A2988
RPLC 150200Z 36004KT 9999 SCT020 BKN100 26/21 Q1012 NOSIG RMK A2988
RPLC 150100Z 02004KT 9999 SCT020 BKN100 26/21 Q1012 NOSIG RMK A2988
RPLC 150000Z 34002KT 9999 SCT020 BKN100 25/20 Q1012 NOSIG RMK A2988
RPLC 142300Z 32002KT 9999 SCT020 BKN100 24/18 Q1012 NOSIG RMK A2988
RPLC 142200Z 34002KT 9999 FEW020 BKN300 24/20 Q1011 NOSIG RMK A2985
RPLC 142100Z 36004KT 9999 FEW020 BKN300 24/20 Q1011 NOSIG RMK A2985
RPLC 142000Z 32004KT 9999 FEW020 BKN300 24/21 Q1010 NOSIG RMK A2983
RPLC 141900Z 35004KT 9999 SCT020 BKN300 24/20 Q1010 NOSIG RMK A2983
RPLC 141800Z 36004KT 9999 SCT020 BKN300 25/20 Q1011 NOSIG RMK A2985

RPLB (SFS) – SUBIC BAY INTERNATIONAL AIRPORT
RPLB 160900Z 05008KT 9999 SCT020 29/21 Q1008 NOSIG RMK A2977
RPLB 160800Z 07013KT 9999 FEW020 31/20 Q1007 NOSIG RMK A2974
RPLB 160700Z 08011KT 040V110 9999 FEW020 31/21 Q1007 NOSIG RMK A2974
RPLB 160600Z 07015KT 030V100 9999 FEW020 31/21 Q1007 NOSIG RMK A2974
RPLB 160500Z 07014KT 040V100 9999 FEW020 31/20 Q1008 NOSIG RMK A2977
RPLB 160400Z 06013KT 9999 FEW020 31/21 Q1009 NOSIG RMK A2980
RPLB 160300Z 06012KT 9999 FEW020 30/21 Q1010 NOSIG RMK A2983
RPLB 160200Z 06012KT 9999 FEW020 29/20 Q1010 NOSIG RMK A2983
RPLB 160100Z 05009KT 9999 FEW020 28/20 Q1011 NOSIG RMK A2985
RPLB 160000Z 05007KT 9999 FEW020 26/20 Q1011 NOSIG RMK A2985
RPLB 152300Z 07005KT 9999 FEW020 24/20 Q1010 NOSIG RMK A2983
RPLB 152200Z 04004KT 9999 FEW020 25/21 Q1009 NOSIG RMK A2980
RPLB 152100Z 05005KT 9999 FEW020 25/21 Q1009 NOSIG RMK A2980
RPLB 151900Z 08007KT 9999 FEW020 25/21 Q1008 NOSIG RMK A2977
RPLB 151700Z 05004KT 9999 FEW020 25/21 Q1009 NOSIG RMK A2980
RPLB 151600Z 06004KT 9999 FEW020 25/21 Q1010 NOSIG RMK A2983
RPLB 151500Z 04004KT 9999 FEW020 SCT080 26/21 Q1010 NOSIG RMK A2983
RPLB 151400Z 08008KT 9999 FEW020 SCT080 27/21 Q1010 NOSIG RMK A2983
RPLB 151200Z 06003KT 9999 BKN020 27/22 Q1009 NOSIG RMK A2980
RPLB 151100Z 15003KT 9999 BKN020 28/22 Q1009 NOSIG RMK A2980
RPLB 151000Z 16004KT 9999 BKN020 28/22 Q1008 NOSIG RMK A2977
RPLB 150900Z 17005KT 9999 BKN020 29/22 Q1008 NOSIG RMK A2977
RPLB 150800Z 22008KT 190V280 9999 SCT020 30/22 Q1007 NOSIG RMK A2974
RPLB 150700Z 09008KT 060V140 9999 FEW020 SCT080 32/21 Q1007 NOSIG RMK A2974
RPLB 150600Z 07009KT 030V100 9999 FEW020 SCT080 32/21 Q1008 NOSIG RMK A2977
RPLB 150500Z 08009KT 040V110 9999 FEW020 SCT080 32/20 Q1008 NOSIG RMK A2977
RPLB 150400Z 08011KT 9999 FEW020 BKN080 31/20 Q1010 NOSIG RMK A2983
RPLB 150300Z 09013KT 9999 FEW020 BKN080 30/20 Q1010 NOSIG RMK A2983
RPLB 150200Z 07013KT 9999 FEW020 SCT080 30/20 Q1011 NOSIG RMK A2985
RPLB 150100Z 05007KT 9999 FEW020 BKN080 28/20 Q1011 NOSIG RMK A2985
RPLB 150000Z 06005KT 9999 FEW020 BKN080 26/20 Q1011 NOSIG RMK A2985
RPLB 142300Z 04004KT 300V080 9999 FEW020 BKN080 25/20 Q1011 NOSIG RMK A2985
RPLB 142200Z 08003KT 040V100 9999 FEW020 BKN080 24/21 Q1010 NOSIG RMK A2983
RPLB 142100Z VRB02KT 9999 FEW020 24/21 Q1010 NOSIG RMK A2983
RPLB 142000Z 04003KT 9999 FEW020 24/21 Q1010 NOSIG RMK A2983
RPLB 141900Z VRB02KT 9999 FEW020 25/21 Q1010 NOSIG RMK A2983
RPLB 141800Z 04004KT 9999 FEW020 25/21 Q1010 NOSIG RMK A2983

RPLI (LAO) – LAOAG INTERNATIONAL AIRPORT
RPLI 160900Z 03009KT 9999 FEW018 SCT290 29/19 Q1008 NOSIG RMK A2977
RPLI 160800Z 03012KT 9999 FEW018 SCT290 30/19 Q1007 NOSIG RMK A2974
RPLI 160700Z 02012KT 9999 FEW018 32/19 Q1007 NOSIG RMK A2974
RPLI 160600Z 03011KT 360V060 9999 FEW018 32/19 Q1007 NOSIG RMK A2974
RPLI 160500Z 04009KT 010V070 9999 FEW018 31/19 Q1008 NOSIG RMK A2977
RPLI 160400Z 03008KT 360V060 9999 FEW018 31/19 Q1009 NOSIG RMK A2980
RPLI 160300Z VRB04KT 9999 FEW018 30/19 Q1010 NOSIG RMK A2983
RPLI 160200Z 04005KT 350V100 9999 FEW018 28/19 Q1011 NOSIG RMK A2985
RPLI 160000Z 03003KT 360V060 9999 FEW018 25/19 Q1011 NOSIG RMK A2985
RPLI 152300Z 02005KT 9999 FEW018 22/19 Q1011 NOSIG RMK A2985
RPLI 152200Z 03007KT 9999 FEW018 BKN080 23/18 Q1010 NOSIG RMK A2983
RPLI 152100Z 03007KT 9999 FEW018 23/19 Q1009 NOSIG RMK A2980
RPLI 151500Z 00000KT 9999 FEW018 21/20 Q1010 NOSIG RMK A2983
RPLI 151200Z 02003KT 9999 FEW018 SCT290 24/20 Q1008 NOSIG RMK A2977
RPLI 151100Z 03004KT 9999 FEW018 SCT290 25/19 Q1008 NOSIG RMK A2977
RPLI 151000Z 03006KT 9999 FEW018 SCT290 26/20 Q1007 NOSIG RMK A2974
RPLI 150900Z 03008KT 010V070 9999 FEW018 BKN290 28/20 Q1007 NOSIG RMK A2974
RPLI 150800Z 01012KT 9999 FEW018 BKN290 29/22 Q1007 NOSIG RMK A2974
RPLI 150700Z 36013KT 9999 FEW018 SCT290 28/22 Q1007 NOSIG RMK A2974
RPLI 150600Z 36015KT 9999 FEW018 28/22 Q1008 NOSIG RMK A2977
RPLI 150500Z 01014KT 9999 FEW018 28/22 Q1008 NOSIG RMK A2977
RPLI 150400Z 36014KT 9999 FEW018 27/22 Q1010 NOSIG RMK A2983
RPLI 150300Z 36012KT 9999 FEW018 28/21 Q1011 NOSIG RMK A2985
RPLI 150200Z 36009KT 330V040 9999 FEW018 27/21 Q1012 NOSIG RMK A2988
RPLI 150100Z 03007KT 9999 FEW018 26/20 Q1012 NOSIG RMK A2988
RPLI 150000Z 04004KT 9999 FEW018 24/20 Q1012 NOSIG RMK A2988
RPLI 142300Z 05003KT 9999 FEW018 SCT090 22/19 Q1011 NOSIG RMK A2985
RPLI 142200Z 05003KT 9999 FEW018 BKN090 21/19 Q1011 NOSIG RMK A2985
RPLI 142100Z VRB02KT 9999 FEW018 BKN090 22/20 Q1011 NOSIG RMK A2985
RPLI 141800Z VRB02KT 9999 FEW018 SCT100 23/19 Q1011 NOSIG RMK A2985

RPVP (PPS) – PUERTO PRINCESA INTERNATIONAL AIRPORT
RPVP 160900Z 06010KT 9999 FEW017CB BKN240 29/24 Q1006 RMK A2971 CB NW
RPVP 160800Z 09012KT 9999 FEW017CB BKN240 29/24 Q1006 RMK A2971 CB NW-NNW
RPVP 160700Z 09012KT 9999 FEW017CB BKN240 30/24 Q1006 RMK A2971 CB NW-NNW
RPVP 160600Z 09014G20KT 9999 FEW017CB BKN240 30/24 Q1006 RMK A2971 CB NW
RPVP 160500Z 09012G20KT 9999 FEW019 BKN240 30/25 Q1007 RMK A2974
RPVP 160400Z 09012KT 9999 FEW019 SCT240 30/24 Q1008 RMK A2977
RPVP 160300Z 09012KT 9999 FEW019 SCT240 30/25 Q1008 RMK A2977
RPVP 160200Z 09008KT 9999 FEW019 SCT240 29/25 Q1009 RMK A2980
RPVP 160100Z 09006KT 9999 FEW019 SCT080 27/24 Q1009 RMK A2980
RPVP 160000Z 27004KT 9999 FEW019 SCT080 26/24 Q1009 RMK A2980
RPVP 152300Z 27004KT 9999 FEW019 SCT250 25/24 Q1008 RMK A2977
RPVP 152200Z 27004KT 9999 FEW019 SCT080 25/24 Q1007 RMK A2974
RPVP 152100Z 27002KT 9999 FEW019 SCT080 25/24 Q1006 RMK A2971
RPVP 151500Z 27006KT 9999 FEW019 SCT080 26/24 Q1008 RMK A2977
RPVP 151200Z 34004KT 9999 FEW017CB BKN080 27/24 Q1008 RMK A2977 CB W/ OCNL LTG E
RPVP 151100Z 01004KT 9999 FEW019 BKN080 27/24 Q1007 RMK A2974
RPVP 151000Z 01004KT 9999 SCT019 OVC080 28/24 Q1006 RMK A2971
RPVP 150900Z 36006KT 9999 SCT019 OVC080 28/25 Q1007 RMK A2974
RPVP 150800Z 36004KT 9999 SCT019 OVC080 29/25 Q1006 RMK A2971
RPVP 150700Z 34006KT 9999 SCT019 OVC080 29/24 Q1006 RMK A2971
RPVP 150600Z 21006KT 9999 SCT019 OVC080 29/25 Q1007 RMK A2974
RPVP 150500Z 27006KT 9999 SCT019 BKN080 29/24 Q1008 RMK A2977
RPVP 150400Z 03008KT 9999 SCT019 BKN080 OVC240 29/24 Q1009 RMK A2980
RPVP 150300Z 06008KT 9999 FEW017CB SCT019 BKN080 28/24 Q1009 RMK A2980 CB WNW-NW
RPVP 150200Z 03010KT 9999 SCT019 BKN080 OVC240 29/25 Q1009 RMK A2980
RPVP 150100Z 03004KT 9999 FEW019 BKN080 28/24 Q1009 RMK A2980
RPVP 150000Z 27006KT 9999 FEW019 BKN080 27/24 Q1009 RMK A2980
RPVP 142300Z 29004KT 9999 FEW019 BKN080 26/24 Q1008 RMK A2977
RPVP 142200Z 27004KT 9999 FEW019 26/24 Q1008 RMK A2977
RPVP 142100Z 27004KT 9999 FEW020 26/24 Q1008 RMK A2977
RPVP 141800Z 29004KT 9999 FEW019 SCT080 26/25 Q1008 RMK A2977

RPVD (DGT) – SIBULAN AIRPORT (DUMAGUETE AIRPORT)
RPVD 160900Z 32004KT 9999 VCSH FEW014CB FEW015 BKN220 28/25 Q1005 RMK A2968 CB/VCSH NW-NNW
RPVD 160800Z 29004KT 9999 VCSH FEW014CB FEW015 OVC220 29/25 Q1004 RMK A2965 CB/VCSH WNW-NNW
RPVD 160700Z 29010KT 9999 VCSH FEW014CB FEW015 OVC220 29/25 Q1004 RMK A2965 CB/VCSH N ENE W
RPVD 160600Z 29010KT 9999 VCSH FEW014CB SCT070 BKN220 29/26 Q1005 RMK A2968 CB/VCSH ENE NW NNW
RPVD 160500Z 34008KT 9999 VCSH FEW014CB FEW015 BKN220 29/25 Q1006 RMK A2971 CB/VCSH ENE NW
RPVD 160400Z 29006KT 9999 FEW015 BKN220 29/25 Q1007 RMK A2974
RPVD 160300Z 32008KT 9999 FEW015 BKN220 29/25 Q1007 RMK A2974
RPVD 160200Z 32010KT 9999 FEW015 BKN220 28/24 Q1008 RMK A2977
RPVD 160100Z 29012KT 9999 FEW015 BKN220 29/24 Q1008 RMK A2977
RPVD 160000Z 29008KT 9999 FEW015 SCT070 BKN220 27/23 Q1008 RMK A2977
RPVD 152100Z 29006KT 9999 FEW015 26/23 Q1006 RMK A2971
RPVD 151500Z 29004KT 9999 FEW015 26/22 Q1008 RMK A2977
RPVD 151200Z 36004KT 9999 FEW015 SCT070 27/23 Q1007 RMK A2974
RPVD 150900Z 29006KT 9999 FEW015 BKN220 29/24 Q1005 RMK A2968
RPVD 150800Z 32006KT 9999 FEW015TCU BKN220 29/25 Q1005 RMK A2968 TCU WSW
RPVD 150700Z 32004KT 9999 FEW015TCU SCT070 BKN220 30/25 Q1005 RMK A2968 TCU WSW
RPVD 150600Z 02006KT 9999 FEW014CB FEW015 BKN220 30/24 Q1005 RMK A2968 CB WSW
RPVD 150500Z 29006KT 9999 FEW015 BKN220 30/26 Q1007 RMK A2974
RPVD 150400Z 04004KT 9999 FEW015 SCT220 30/25 Q1008 RMK A2977
RPVD 150300Z 34004KT 9999 VCSH FEW015 BKN070 29/24 Q1008 RMK A2977
RPVD 150200Z 32006KT 9999 FEW015 SCT070 29/25 Q1008 RMK A2977
RPVD 150100Z 34004KT 9999 VCSH FEW014CB FEW015 SCT220 29/25 Q1009 RMK A2980 CB/VCSH S
RPVD 150000Z 29006KT 9999 VCSH FEW014CB FEW015 SCT070 28/25 Q1009 RMK A2980 CB/VCSH SE
RPVD 142200Z 29004KT 9999 FEW014CB FEW015 SCT070 26/24 Q1007 RMK A2974 CB SE TCU WNW
RPVD 142100Z 29004KT 9999 FEW015 26/24 Q1007 RMK A2974
RPVD 141800Z 25004KT 9999 FEW015 SCT070 25/24 Q1007 RMK A2974

RPMR (GES) – GENERAL SANTOS INTERNATIONAL AIRPORT
RPMR 160900Z 17010KT 9999 VCSH FEW018 OVC080 26/24 Q1006 RMK A2971 VCSH NE SW
RPMR 160800Z 17012KT 9999 VCSH FEW018 OVC080 27/24 Q1005 RMK A2968 VCSH NE SW
RPMR 160700Z 18007KT 9999 VCSH FEW018 OVC080 27/24 Q1005 RMK A2968 VCSH NE SW NW
RPMR 160600Z 17008KT 9999 VCSH FEW018 OVC080 27/24 Q1005 RMK A2968 VCSH E SW NW
RPMR 160500Z 06004KT 020V130 9999 FEW018 BKN080 29/24 Q1005 RMK A2968
RPMR 160400Z 36003KT 270V050 9999 FEW018 BKN080 28/24 Q1007 RMK A2974
RPMR 160300Z 09004KT 050V120 9999 FEW018 BKN080 28/24 Q1008 RMK A2977
RPMR 160200Z 05004KT 360V090 9999 FEW018 BKN080 28/23 Q1008 RMK A2977
RPMR 160100Z VRB02KT 9999 FEW018 BKN080 28/23 Q1009 RMK A2980
RPMR 160000Z VRB01KT 9999 FEW018 BKN080 26/23 Q1009 RMK A2980
RPMR 150900Z 08005KT 9999 -RA FEW018 OVC080 25/25 Q1007 RMK A2974
RPMR 150800Z 16012KT 9999 VCSH FEW018 OVC080 27/24 Q1006 RMK A2971 VCSH ALQDS
RPMR 150700Z 16010KT 9999 VCSH FEW018CB BKN080 28/24 Q1005 RMK A2968 CB/VCSH NE E NW
RPMR 150600Z 16010KT 9999 FEW018CB BKN080 31/24 Q1005 RMK A2968 CB E NW
RPMR 150500Z 14006KT 9999 FEW018CB BKN080 31/23 Q1006 RMK A2971 CB NW
RPMR 150400Z 10004KT 9999 FEW018 BKN080 31/24 Q1008 RMK A2977
RPMR 150300Z VRB02KT 9999 FEW018 BKN080 30/23 Q1008 RMK A2977
RPMR 150200Z 11003KT 9999 FEW018 BKN080 29/23 Q1009 RMK A2980
RPMR 150100Z 07004KT 9999 FEW018 SCT080 28/23 Q1009 RMK A2983
RPMR 150000Z 02003KT 9999 FEW018CB BKN250 27/23 Q1009 RMK A2983

RPMD (DVO) – FRANCISCO BANGOY INTERNATIONAL AIRPORT
RPMD 160900Z VRB01KT 9999 -SHRA SCT015 BKN090 OVC260 26/26 Q1005 RMK A2968
RPMD 160800Z 16004KT 130V200 9999 SCT015CB BKN090 OVC260 26/26 Q1005 RESHRA RMK A2968 CB SE S
RPMD 160700Z 08007KT 9999 -SHRA SCT015 BKN090 OVC260 27/25 Q1004 RMK A2965 CB E SE
RPMD 160600Z 04012KT 9999 -SHRA SCT015CB SCT090 BKN260 29/24 Q1004 RMK A2962 CB E
RPMD 160500Z 06009KT 9999 SCT016 SCT090 BKN260 31/24 Q1005 RMK A2968
RPMD 160400Z 04010KT 9999 FEW016 SCT090 BKN290 31/25 Q1006 RMK A2971
RPMD 160300Z 02006KT 330V070 9999 FEW016 SCT090 BKN290 31/24 Q1007 RMK A2974
RPMD 160200Z 02006KT 350V070 9999 FEW016 SCT090 29/25 Q1008 RMK A2977
RPMD 160100Z 06006KT 330V050 9999 FEW016 SCT290 28/25 Q1008 RMK A2977
RPMD 160000Z 36006KT 320V040 9999 FEW016 SCT090 27/25 Q1008 RMK A2977
RPMD 152300Z 01004KT 320V040 9999 FEW015 SCT090 25/25 Q1008 RMK A2977
RPMD 152200Z 03003KT 300V060 9999 VCSH FEW015 BKN260 24/24 Q1007 RMK A2974 VCSH NW SE
RPMD 152100Z 35003KT 310V030 9999 FEW016 25/25 Q1006 RMK A2971
RPMD 151900Z 02003KT 9999 FEW016 24/24 Q1006 RMK A2971
RPMD 151700Z 36003KT 330V040 9999 FEW016 SCT290 25/25 Q1006 RMK A2971
RPMD 151600Z 35003KT 320V020 9999 FEW016 SCT290 25/25 Q1007 RMK A2974
RPMD 151500Z 36003KT 330V030 9999 FEW016 BKN260 26/26 Q1008 RMK A2977
RPMD 151200Z 31003KT 270V340 9999 SCT015 BKN090 OVC260 25/25 Q1008 RERA RMK A2977
RPMD 151100Z VRB02KT 9000 -RA FEW015CB BKN090 OVC260 25/25 Q1007 RMK A2974 CB N SE SW
RPMD 151000Z 28004KT 250V320 8000 -RA FEW015CB BKN080 OVC260 25/25 Q1007 RMK A2974 CB E SE SW-NW
RPMD 150900Z 33004KT 290V360 9000 -RA SCT015CB BKN090 OVC260 26/26 Q1007 RETS RMK A2974 CB WSW-N
RPMD 150800Z 16004KT 120V180 9000 -TSRA SCT015CB BKN090 BKN260 28/26 Q1006 RMK A2971 CB WSW-NE
RPMD 150700Z 15008KT 9999 TS VCSH SCT015CB BKN090 BKN260 29/25 Q1005 RMK A2968 CB WNW-E SW-W VCSH NW
RPMD 150600Z 16007KT 110V200 9999 VCSH FEW015CB FEW016 SCT090 BKN290 31/24 Q1005 RMK A2968 CB/VCSH E-SE TCU WNW
RPMD 150500Z 10006KT 040V150 9999 FEW015CB FEW016 SCT090 BKN290 31/25 Q1005 RMK A2968 CB SSE
RPMD 150400Z 07005KT 010V160 9999 SCT016 31/25 Q1007 RMK A2974
RPMD 150300Z 06007KT 320V090 9999 SCT016TCU SCT290 30/25 Q1008 RMK A2977 TCU SE W
RPMD 150200Z 02004KT 320V090 9999 FEW016TCU SCT290 29/25 Q1008 RMK A2980 TCU SSE
RPMD 150100Z 03006KT 9999 FEW015CB FEW016 SCT090 28/26 Q1009 RMK A2980 CB SSW-WSW
RPMD 150000Z 04007KT 360V060 9999 SCT015 SCT090 27/26 Q1009 RMK A2980
RPMD 142300Z 02003KT 330V060 9999 SCT016 SCT090 BKN290 26/26 Q1009 RMK A2980
RPMD 142200Z 00000KT 9999 SCT015 BKN090 BKN260 25/25 Q1008 RMK A2977
RPMD 142100Z 01003KT 9999 FEW016 SCT090 BKN260 25/25 Q1007 RMK A2974
RPMD 142000Z 36003KT 9999 FEW016 SCT090 BKN260 26/26 Q1007 RMK A2974
RPMD 141900Z 02004KT 9999 SCT015 SCT090 BKN260 25/25 Q1007 RMK A2974
RPMD 141800Z 35003KT 310V040 9999 VCSH FEW015 SCT090 BKN260 26/26 Q1007 RMK A2974 VCSH NE NW S

RPMZ (ZAM) – ZAMBOANGA INTERNATIONAL AIRPORT
RPMZ 160900Z 29005KT 9999 FEW017 SCT090 BKN300 27/25 Q1005 RMK A2968
RPMZ 160800Z 28008KT 9999 FEW016CB FEW017 BKN090 27/25 Q1005 RMK A2968 CB NE OHD
RPMZ 160700Z 26009KT 230V290 9999 FEW016CB FEW017 SCT090 BKN300 28/24 Q1004 RMK A2965 CB NW-NE VCSH NW-N
RPMZ 160600Z 26009KT 210V290 9999 FEW016CB FEW017 BKN300 29/25 Q1005 RMK A2968 CB NW-NE
RPMZ 160500Z 25008KT 210V280 9999 FEW016CB FEW017 SCT090 BKN300 29/25 Q1006 RMK A2971 CB N
RPMZ 160400Z 28008KT 9999 FEW017 BKN090 27/24 Q1007 RESHRA RMK A2974
RPMZ 160300Z 29008KT 9999 -SHRA FEW016CB FEW017 OVC090 26/25 Q1008 RMK A2977 CB W-NE OHD
RPMZ 160200Z 26007KT 9999 VCSH FEW016CB FEW017 OVC090 27/25 Q1008 RMK A2977 CB W-NE OHD VCSH NW-N
RPMZ 160100Z 22004KT 170V280 9999 SCT017 OVC090 27/25 Q1009 RMK A2980
RPMZ 160000Z 00000KT 9999 FEW017 BKN090 27/25 Q1008 RMK A2977
RPMZ 152300Z 34002KT 9999 SCT017 BKN090 26/25 Q1007 RMK A2974
RPMZ 152200Z 10002KT 9999 SCT017 BKN090 25/25 Q1006 RMK A2971
RPMZ 152100Z VRB02KT 9999 SCT017 BKN090 25/25 Q1006 RMK A2971
RPMZ 151500Z VRB01KT 9999 FEW017 BKN090 26/24 Q1007 RMK A2974
RPMZ 151200Z 30004KT 9999 FEW017 BKN090 26/25 Q1007 RMK A2974
RPMZ 151000Z 29005KT 9999 FEW016CB FEW017 BKN090 27/25 Q1006 RMK A2971 CB NE
RPMZ 150900Z 26008KT 9999 FEW016CB FEW017 SCT090 28/25 Q1006 RMK A2971 CB SE-SW NW
RPMZ 150800Z 26011KT 9999 FEW016CB FEW017 SCT090 28/25 Q1005 RMK A2968 CB NW-NE
RPMZ 150700Z 27008KT 9999 FEW016CB FEW017 SCT090 29/24 Q1005 RMK A2968 CB NW-NE
RPMZ 150600Z 26007KT 220V300 9999 FEW016CB FEW017 SCT090 27/24 Q1006 RERA RMK A2971 CB NW-NE S-SW
RPMZ 150500Z 29010KT 9999 -RA SCT016CB FEW017 BKN090 25/25 Q1007 RMK A2974 CB ALQDS
RPMZ 150400Z 28005KT 200V330 9999 SCT016CB FEW017 BKN090 29/25 Q1007 RMK A2974 CB/VCSH SW-N OHD
RPMZ 150300Z 17006KT 120V210 9999 FEW016CB FEW017 BKN090 31/25 Q1008 RMK A2977 CB NW-NE SE-S OHD
RPMZ 150200Z VRB02KT 9999 FEW016CB FEW017 BKN090 30/25 Q1008 RMK A2977 CB NW-NE
RPMZ 150100Z 07003KT 9999 FEW016CB FEW017 SCT090 28/24 Q1009 RMK A2980 CB OHD
RPMZ 150000Z 07002KT 9999 FEW016CB FEW017 SCT090 BKN300 27/25 Q1009 RMK A2980 CB NW NE
RPMZ 142300Z 00000KT 9999 FEW016CB FEW017 SCT090 BKN300 25/24 Q1008 RMK A2977 CB NE
RPMZ 142200Z VRB01KT 9999 FEW016CB FEW017 SCT090 BKN300 24/24 Q1007 RMK A2974 CB NE
RPMZ 142100Z VRB01KT 9999 FEW017 BKN300 24/24 Q1007 RMK A2974
RPMZ 141800Z 00000KT 9999 FEW017 SCT300 25/24 Q10007 RMK A2974